Etusivu
METAR-TAF:

METAR-TAF

Lentoasemat :

Gulf Shores, Alabama, Yhdysvallat

Leveyspiiri: 30-17-23N, Pituuspiiri: 087-40-18W, korkeus merenpinnasta: 5 m

Tämänhetkinen sää

Tämä raportti tehtiin 20 minuuttia sitten, kello 01.35 UTC
Tuuli 6 kn pohjoisesta/koillisesta
Lämpötila 14°C
Kosteus 94%
Ilmanpaine 1008 hPa
Näkyvyys: 16.1 km
Pilvistä 1300 ft:n korkeudessa

METAR: KJKA 190135Z AUTO 02006KT 10SM OVC013 14/13 A2976 RMK AO2 T01430132

Aika: 20:55 (01:55 UTC)


TAF: puuttuu

Säähavainnot ja -ennusteet yli 4000 lentoasemalta (METAR- ja TAF-raportit).

Käytössä olevat sääasemat on merkitty karttaan keltaisilla ja punaisilla pisteillä.

Aseta hiiri pisteen päälle nähdäksesi sääaseman nimen.

Klikkaa sitten nähdäksesi säähavainnot ja -ennusteet.

Kartan vaihtaminen: klikkaa mustalla rastilla varustettuja vihreitä pisteitä, niin voit zoomata sisään; viivalla varustettua vihreää pistettä, niin voit zoomata ulos tai vihreitä nuolia, niin pääset viereisille kartoille.


METAR-TAF: